Time;durP1;ratioP1;P1;durP2;ratioP2;P2;SDS_P1;SDS_P2;PMS_P1;PMS_P2;Temp;Humidity;BMP_temperature;BMP_pressure;BME280_temperature;BME280_humidity;BME280_pressure;Samples;Min_cycle;Max_cycle;Signal;HPM_P1;HPM_P2
2022/08/20 00:00:19;;;;;;;;;;;;;;;;;;4991109;28;19922;-64
2022/08/20 00:02:44;;;;;;;;;;;;;;;;;;4992746;28;20363;-63
2022/08/20 00:05:09;;;;;;;;;;;;;;;;;;4975609;28;19945;-64
2022/08/20 00:07:35;;;;;;;;;;;;;;;;;;4986274;28;19921;-63
2022/08/20 00:10:00;;;;;;;;;;;;;;;;;;4991720;28;20005;-63
2022/08/20 00:12:25;;;;;;;;;;;;;;;;;;4993076;28;19914;-63
2022/08/20 00:14:50;;;;;;;;;;;;;;;;;;4988463;28;20036;-63
2022/08/20 00:17:15;;;;;;;;;;;;;;;;;;4995644;28;19925;-63
2022/08/20 00:19:40;;;;;;;;;;;;;;;;;;4998859;28;19918;-64
2022/08/20 00:22:06;;;;;;;;;;;;;;;;;;5006870;28;19968;-63
2022/08/20 00:24:31;;;;;;;;;;;;;;;;;;5015728;28;19935;-63
2022/08/20 00:26:56;;;;;;;;;;;;;;;;;;5011641;28;19917;-63
2022/08/20 00:29:22;;;;;;;;;;;;;;;;;;5009638;28;19967;-64
2022/08/20 00:31:47;;;;;;;;;;;;;;;;;;5002752;28;19917;-63
2022/08/20 00:34:12;;;;;;;;;;;;;;;;;;4999708;28;19956;-64
2022/08/20 00:36:37;;;;;;;;;;;;;;;;;;5013219;28;19910;-64
2022/08/20 00:39:02;;;;;;;;;;;;;;;;;;5009560;28;19913;-65
2022/08/20 00:41:27;;;;;;;;;;;;;;;;;;5012617;28;19921;-64
2022/08/20 00:43:53;;;;;;;;;;;;;;;;;;5007768;28;19910;-64
2022/08/20 00:46:18;;;;;;;;;;;;;;;;;;5000358;28;19929;-64
2022/08/20 00:48:43;;;;;;;;;;;;;;;;;;5011941;28;20374;-64
2022/08/20 00:51:08;;;;;;;;;;;;;;;;;;5009751;28;20045;-64
2022/08/20 00:53:33;;;;;;;;;;;;;;;;;;4995108;28;19939;-64
2022/08/20 00:55:59;;;;;;;;;;;;;;;;;;5009491;28;19914;-64
2022/08/20 00:58:26;;;;;;;;;;;;;;;;;;5010238;28;19913;-64
2022/08/20 01:00:51;;;;;;;;;;;;;;;;;;4998599;28;19913;-64
2022/08/20 01:03:16;;;;;;;;;;;;;;;;;;5010705;28;19945;-64
2022/08/20 01:05:43;;;;;;;;;;;;;;;;;;5006632;28;19922;-64
2022/08/20 01:08:08;;;;;;;;;;;;;;;;;;4982909;28;19957;-64
2022/08/20 01:10:33;;;;;;;;;;;;;;;;;;5006689;28;19960;-64
2022/08/20 01:12:58;;;;;;;;;;;;;;;;;;4998076;28;19960;-64
2022/08/20 01:15:24;;;;;;;;;;;;;;;;;;5013684;28;19920;-64
2022/08/20 01:17:49;;;;;;;;;;;;;;;;;;5011851;28;19922;-64
2022/08/20 01:20:14;;;;;;;;;;;;;;;;;;5004169;28;19961;-64
2022/08/20 01:25:23;;;;;;;;;;;;;;;;;;5007591;28;20390;-64
2022/08/20 01:27:49;;;;;;;;;;;;;;;;;;5006899;28;19956;-64
2022/08/20 01:30:14;;;;;;;;;;;;;;;;;;5013761;28;19909;-65
2022/08/20 01:32:39;;;;;;;;;;;;;;;;;;5013274;28;19948;-64
2022/08/20 01:35:04;;;;;;;;;;;;;;;;;;5023103;28;20383;-64
2022/08/20 01:37:29;;;;;;;;;;;;;;;;;;5014924;28;19914;-64
2022/08/20 01:39:54;;;;;;;;;;;;;;;;;;5000632;28;19976;-62
2022/08/20 01:42:20;;;;;;;;;;;;;;;;;;5003930;28;19909;-63
2022/08/20 01:44:45;;;;;;;;;;;;;;;;;;5012328;28;19996;-63
2022/08/20 01:47:11;;;;;;;;;;;;;;;;;;5012229;28;20285;-63
2022/08/20 01:49:36;;;;;;;;;;;;;;;;;;4990204;28;19913;-64
2022/08/20 01:52:01;;;;;;;;;;;;;;;;;;5001404;28;20430;-64
2022/08/20 01:54:26;;;;;;;;;;;;;;;;;;5007115;28;19927;-65
2022/08/20 01:56:51;;;;;;;;;;;;;;;;;;5007806;28;19914;-64
2022/08/20 01:59:16;;;;;;;;;;;;;;;;;;5002864;28;19920;-65
2022/08/20 02:01:42;;;;;;;;;;;;;;;;;;5007081;28;19917;-64
2022/08/20 02:04:07;;;;;;;;;;;;;;;;;;5002366;28;20005;-64
2022/08/20 02:06:32;;;;;;;;;;;;;;;;;;5008781;28;19921;-63
2022/08/20 02:08:58;;;;;;;;;;;;;;;;;;5008864;28;19981;-63
2022/08/20 02:11:23;;;;;;;;;;;;;;;;;;5001955;28;19968;-64
2022/08/20 02:13:51;;;;;;;;;;;;;;;;;;4988661;28;19921;-64
2022/08/20 02:16:16;;;;;;;;;;;;;;;;;;4992167;28;19913;-64
2022/08/20 02:18:41;;;;;;;;;;;;;;;;;;5007668;28;19921;-64
2022/08/20 02:21:06;;;;;;;;;;;;;;;;;;4998451;28;20390;-64
2022/08/20 02:23:31;;;;;;;;;;;;;;;;;;5009663;28;19925;-65
2022/08/20 02:25:57;;;;;;;;;;;;;;;;;;5009030;28;19917;-64
2022/08/20 02:28:22;;;;;;;;;;;;;;;;;;5011419;28;19917;-64
2022/08/20 02:30:47;;;;;;;;;;;;;;;;;;5007695;28;19991;-64
2022/08/20 02:33:12;;;;;;;;;;;;;;;;;;5000611;28;20009;-64
2022/08/20 02:35:37;;;;;;;;;;;;;;;;;;5002742;28;20126;-64
2022/08/20 02:38:02;;;;;;;;;;;;;;;;;;5011474;28;19920;-64
2022/08/20 02:40:27;;;;;;;;;;;;;;;;;;5009996;28;19960;-64
2022/08/20 02:42:53;;;;;;;;;;;;;;;;;;5008634;28;19983;-64
2022/08/20 02:45:18;;;;;;;;;;;;;;;;;;5011471;28;20004;-64
2022/08/20 02:47:44;;;;;;;;;;;;;;;;;;5012035;28;19918;-64
2022/08/20 02:50:09;;;;;;;;;;;;;;;;;;4994063;28;20382;-64
2022/08/20 02:52:34;;;;;;;;;;;;;;;;;;5007770;28;19999;-63
2022/08/20 02:54:59;;;;;;;;;;;;;;;;;;5010266;28;19953;-63
2022/08/20 02:57:24;;;;;;;;;;;;;;;;;;5011066;28;19921;-63
2022/08/20 02:59:51;;;;;;;;;;;;;;;;;;5007883;28;20262;-63
2022/08/20 03:02:16;;;;;;;;;;;;;;;;;;5005687;28;19976;-64
2022/08/20 03:04:41;;;;;;;;;;;;;;;;;;5008913;28;19946;-63
2022/08/20 03:07:06;;;;;;;;;;;;;;;;;;4992217;28;19914;-63
2022/08/20 03:09:32;;;;;;;;;;;;;;;;;;4999260;28;20012;-63
2022/08/20 03:11:57;;;;;;;;;;;;;;;;;;5008242;28;19921;-64
2022/08/20 03:14:22;;;;;;;;;;;;;;;;;;5009012;28;19921;-63
2022/08/20 03:16:47;;;;;;;;;;;;;;;;;;5010973;28;19909;-64
2022/08/20 03:19:12;;;;;;;;;;;;;;;;;;5009777;28;19922;-64
2022/08/20 03:21:37;;;;;;;;;;;;;;;;;;5007119;28;19913;-63
2022/08/20 03:24:02;;;;;;;;;;;;;;;;;;5009728;28;19914;-63
2022/08/20 03:26:28;;;;;;;;;;;;;;;;;;5010025;28;20043;-63
2022/08/20 03:28:53;;;;;;;;;;;;;;;;;;4992275;28;19917;-63
2022/08/20 03:31:18;;;;;;;;;;;;;;;;;;5002099;28;19914;-63
2022/08/20 03:36:27;;;;;;;;;;;;;;;;;;5002901;28;20353;-63
2022/08/20 03:38:52;;;;;;;;;;;;;;;;;;5007686;28;19914;-63
2022/08/20 03:41:17;;;;;;;;;;;;;;;;;;5002865;28;20000;-63
2022/08/20 03:43:43;;;;;;;;;;;;;;;;;;5012133;28;19913;-63
2022/08/20 03:46:08;;;;;;;;;;;;;;;;;;5013261;28;19917;-64
2022/08/20 03:48:33;;;;;;;;;;;;;;;;;;5011963;28;19913;-64
2022/08/20 03:50:59;;;;;;;;;;;;;;;;;;5004946;28;19917;-64
2022/08/20 03:53:25;;;;;;;;;;;;;;;;;;5011816;28;19913;-64
2022/08/20 03:55:53;;;;;;;;;;;;;;;;;;5014120;28;20012;-64
2022/08/20 03:58:18;;;;;;;;;;;;;;;;;;5012097;28;19953;-64
2022/08/20 04:00:43;;;;;;;;;;;;;;;;;;5012630;28;19952;-64
2022/08/20 04:03:08;;;;;;;;;;;;;;;;;;5012891;28;19917;-64
2022/08/20 04:05:34;;;;;;;;;;;;;;;;;;5014108;28;19952;-64
2022/08/20 04:07:59;;;;;;;;;;;;;;;;;;5011073;28;19921;-64
2022/08/20 04:10:24;;;;;;;;;;;;;;;;;;5010176;28;20453;-64
2022/08/20 04:12:49;;;;;;;;;;;;;;;;;;4985960;28;19914;-64
2022/08/20 04:15:14;;;;;;;;;;;;;;;;;;5010014;28;20354;-63
2022/08/20 04:17:40;;;;;;;;;;;;;;;;;;5011389;28;19961;-64
2022/08/20 04:20:06;;;;;;;;;;;;;;;;;;5000008;28;19918;-64
2022/08/20 04:22:31;;;;;;;;;;;;;;;;;;4997104;28;19993;-64
2022/08/20 04:24:56;;;;;;;;;;;;;;;;;;4997687;28;19925;-64
2022/08/20 04:27:21;;;;;;;;;;;;;;;;;;4999561;28;19918;-64
2022/08/20 04:29:46;;;;;;;;;;;;;;;;;;5007877;28;20024;-64
2022/08/20 04:32:11;;;;;;;;;;;;;;;;;;4995957;28;19936;-63
2022/08/20 04:34:37;;;;;;;;;;;;;;;;;;5000134;28;19918;-63
2022/08/20 04:37:02;;;;;;;;;;;;;;;;;;5005877;28;19920;-63
2022/08/20 04:39:27;;;;;;;;;;;;;;;;;;5011915;28;19921;-63
2022/08/20 04:41:52;;;;;;;;;;;;;;;;;;5009475;28;19918;-63
2022/08/20 04:44:18;;;;;;;;;;;;;;;;;;5003405;28;19969;-64
2022/08/20 04:46:43;;;;;;;;;;;;;;;;;;5010016;28;19918;-64
2022/08/20 04:49:08;;;;;;;;;;;;;;;;;;5000220;28;19922;-64
2022/08/20 04:51:34;;;;;;;;;;;;;;;;;;5004227;28;20313;-64
2022/08/20 04:53:59;;;;;;;;;;;;;;;;;;4991189;28;19920;-64
2022/08/20 04:56:25;;;;;;;;;;;;;;;;;;5002807;28;20004;-64
2022/08/20 04:58:51;;;;;;;;;;;;;;;;;;4992222;28;19917;-64
2022/08/20 05:01:16;;;;;;;;;;;;;;;;;;4987129;28;20347;-65
2022/08/20 05:03:41;;;;;;;;;;;;;;;;;;5007853;28;19914;-63
2022/08/20 05:06:06;;;;;;;;;;;;;;;;;;5009288;28;19917;-64
2022/08/20 05:08:32;;;;;;;;;;;;;;;;;;5007675;28;19921;-64
2022/08/20 05:10:57;;;;;;;;;;;;;;;;;;5013246;28;20263;-64
2022/08/20 05:13:22;;;;;;;;;;;;;;;;;;4991820;28;20342;-64
2022/08/20 05:15:47;;;;;;;;;;;;;;;;;;5004863;28;19992;-64
2022/08/20 05:18:13;;;;;;;;;;;;;;;;;;4990242;28;19926;-64
2022/08/20 05:20:39;;;;;;;;;;;;;;;;;;4993358;28;20367;-64
2022/08/20 05:23:04;;;;;;;;;;;;;;;;;;5003615;28;19921;-63
2022/08/20 05:25:29;;;;;;;;;;;;;;;;;;5009516;28;19971;-64
2022/08/20 05:27:54;;;;;;;;;;;;;;;;;;5011827;28;19952;-64
2022/08/20 05:30:19;;;;;;;;;;;;;;;;;;4990731;28;19913;-64
2022/08/20 05:32:45;;;;;;;;;;;;;;;;;;4999088;28;19920;-64
2022/08/20 05:35:11;;;;;;;;;;;;;;;;;;5004957;28;19913;-64
2022/08/20 05:37:36;;;;;;;;;;;;;;;;;;4991420;28;19967;-64
2022/08/20 05:40:01;;;;;;;;;;;;;;;;;;4994403;28;19921;-64
2022/08/20 05:42:27;;;;;;;;;;;;;;;;;;5007512;28;20068;-62
2022/08/20 05:44:53;;;;;;;;;;;;;;;;;;5004648;28;19921;-63
2022/08/20 05:47:18;;;;;;;;;;;;;;;;;;4994609;28;20313;-64
2022/08/20 05:49:45;;;;;;;;;;;;;;;;;;4995689;28;20015;-64
2022/08/20 05:52:10;;;;;;;;;;;;;;;;;;4986286;28;19914;-64
2022/08/20 05:54:36;;;;;;;;;;;;;;;;;;4989432;28;19929;-63
2022/08/20 05:57:02;;;;;;;;;;;;;;;;;;5002388;28;20340;-65
2022/08/20 05:59:27;;;;;;;;;;;;;;;;;;5008581;28;20014;-64
2022/08/20 06:01:52;;;;;;;;;;;;;;;;;;5005288;28;20347;-63
2022/08/20 06:04:24;;;;;;;;;;;;;;;;;;5003474;28;19914;-64
2022/08/20 06:06:50;;;;;;;;;;;;;;;;;;4991856;28;20890;-65
2022/08/20 06:09:15;;;;;;;;;;;;;;;;;;5005079;28;19936;-64
2022/08/20 06:11:40;;;;;;;;;;;;;;;;;;5000475;28;20362;-63
2022/08/20 06:14:06;;;;;;;;;;;;;;;;;;4998095;28;19984;-64
2022/08/20 06:16:31;;;;;;;;;;;;;;;;;;4990336;28;19921;-64
2022/08/20 06:18:56;;;;;;;;;;;;;;;;;;5001172;28;20512;-65
2022/08/20 06:21:21;;;;;;;;;;;;;;;;;;4991139;28;19917;-63
2022/08/20 06:23:47;;;;;;;;;;;;;;;;;;4988993;28;19992;-65
2022/08/20 06:26:13;;;;;;;;;;;;;;;;;;5004042;28;19948;-64
2022/08/20 06:28:38;;;;;;;;;;;;;;;;;;5001797;28;19961;-64
2022/08/20 06:31:03;;;;;;;;;;;;;;;;;;4998537;28;19914;-64
2022/08/20 06:33:28;;;;;;;;;;;;;;;;;;4990614;28;20396;-64
2022/08/20 06:35:54;;;;;;;;;;;;;;;;;;4996783;28;20342;-64
2022/08/20 06:38:19;;;;;;;;;;;;;;;;;;4991733;28;19918;-64
2022/08/20 06:40:44;;;;;;;;;;;;;;;;;;5006001;28;20321;-64
2022/08/20 06:43:10;;;;;;;;;;;;;;;;;;4998264;28;20008;-64
2022/08/20 06:45:36;;;;;;;;;;;;;;;;;;4979760;28;20271;-64
2022/08/20 06:48:01;;;;;;;;;;;;;;;;;;4994467;28;19992;-64
2022/08/20 06:50:27;;;;;;;;;;;;;;;;;;4982853;28;19979;-63
2022/08/20 06:52:52;;;;;;;;;;;;;;;;;;4991519;28;19954;-64
2022/08/20 06:55:17;;;;;;;;;;;;;;;;;;4995177;28;19918;-63
2022/08/20 06:57:42;;;;;;;;;;;;;;;;;;4987458;28;20294;-64
2022/08/20 07:00:07;;;;;;;;;;;;;;;;;;4983983;28;20804;-63
2022/08/20 07:02:34;;;;;;;;;;;;;;;;;;4993189;28;19914;-63
2022/08/20 07:04:59;;;;;;;;;;;;;;;;;;5014558;28;19925;-64
2022/08/20 07:07:25;;;;;;;;;;;;;;;;;;4988466;28;19917;-65
2022/08/20 07:09:50;;;;;;;;;;;;;;;;;;5000774;28;19914;-64
2022/08/20 07:12:16;;;;;;;;;;;;;;;;;;4990557;28;19913;-64
2022/08/20 07:14:41;;;;;;;;;;;;;;;;;;4988730;28;20293;-64
2022/08/20 07:17:07;;;;;;;;;;;;;;;;;;4988807;28;20377;-62
2022/08/20 07:19:32;;;;;;;;;;;;;;;;;;5001713;28;19918;-63
2022/08/20 07:21:57;;;;;;;;;;;;;;;;;;5003847;28;20172;-68
2022/08/20 07:24:22;;;;;;;;;;;;;;;;;;5003381;28;19921;-69
2022/08/20 07:26:50;;;;;;;;;;;;;;;;;;5004175;28;19995;-66
2022/08/20 07:29:16;;;;;;;;;;;;;;;;;;5019554;28;20011;-64
2022/08/20 07:34:24;;;;;;;;;;;;;;;;;;5029852;28;19936;-66
2022/08/20 07:36:50;;;;;;;;;;;;;;;;;;4989231;28;20373;-65
2022/08/20 07:39:15;;;;;;;;;;;;;;;;;;4998668;28;20011;-63
2022/08/20 07:41:40;;;;;;;;;;;;;;;;;;5005382;28;19913;-64
2022/08/20 07:44:05;;;;;;;;;;;;;;;;;;5016176;28;19920;-62
2022/08/20 07:46:30;;;;;;;;;;;;;;;;;;5004914;28;20057;-63
2022/08/20 07:48:55;;;;;;;;;;;;;;;;;;5027115;28;19913;-63
2022/08/20 07:51:21;;;;;;;;;;;;;;;;;;5020790;28;19949;-64
2022/08/20 07:53:46;;;;;;;;;;;;;;;;;;5015491;28;20612;-63
2022/08/20 07:56:11;;;;;;;;;;;;;;;;;;5020607;28;20619;-61
2022/08/20 07:58:37;;;;;;;;;;;;;;;;;;5012695;28;19920;-62
2022/08/20 08:01:02;;;;;;;;;;;;;;;;;;5001483;28;19914;-62
2022/08/20 08:03:28;;;;;;;;;;;;;;;;;;5023676;28;19954;-63
2022/08/20 08:05:53;;;;;;;;;;;;;;;;;;5016085;28;19921;-65
2022/08/20 08:08:18;;;;;;;;;;;;;;;;;;5006287;28;19953;-62
2022/08/20 08:10:43;;;;;;;;;;;;;;;;;;5017355;28;19914;-62
2022/08/20 08:13:08;;;;;;;;;;;;;;;;;;5003485;28;22172;-62
2022/08/20 08:15:33;;;;;;;;;;;;;;;;;;5020888;28;19996;-61
2022/08/20 08:17:59;;;;;;;;;;;;;;;;;;5023868;28;20394;-63
2022/08/20 08:20:24;;;;;;;;;;;;;;;;;;5005088;28;19965;-61
2022/08/20 08:22:49;;;;;;;;;;;;;;;;;;5012056;28;19964;-63
2022/08/20 08:25:15;;;;;;;;;;;;;;;;;;5027273;28;19913;-62
2022/08/20 08:27:40;;;;;;;;;;;;;;;;;;5016993;28;19917;-63
2022/08/20 08:30:06;;;;;;;;;;;;;;;;;;5015829;28;19914;-61
2022/08/20 08:32:31;;;;;;;;;;;;;;;;;;5021289;28;19913;-61
2022/08/20 08:34:56;;;;;;;;;;;;;;;;;;5026038;28;19917;-62
2022/08/20 08:37:21;;;;;;;;;;;;;;;;;;5004317;28;19921;-62
2022/08/20 08:39:46;;;;;;;;;;;;;;;;;;5017435;28;20384;-62
2022/08/20 08:42:11;;;;;;;;;;;;;;;;;;5003884;28;20370;-65
2022/08/20 08:44:37;;;;;;;;;;;;;;;;;;5006872;28;20321;-60
2022/08/20 08:47:02;;;;;;;;;;;;;;;;;;4998146;28;19924;-61
2022/08/20 08:49:28;;;;;;;;;;;;;;;;;;5026445;28;19913;-61
2022/08/20 08:51:54;;;;;;;;;;;;;;;;;;4991123;28;19922;-60
2022/08/20 08:54:20;;;;;;;;;;;;;;;;;;5006854;28;20142;-62
2022/08/20 08:56:45;;;;;;;;;;;;;;;;;;5000554;28;19921;-61
2022/08/20 08:59:10;;;;;;;;;;;;;;;;;;4997386;28;19914;-64
2022/08/20 09:01:35;;;;;;;;;;;;;;;;;;4990420;28;19961;-63
2022/08/20 09:04:00;;;;;;;;;;;;;;;;;;5001199;28;20000;-61
2022/08/20 09:06:27;;;;;;;;;;;;;;;;;;5016260;28;20182;-60
2022/08/20 09:08:52;;;;;;;;;;;;;;;;;;5023004;28;19919;-61
2022/08/20 09:11:17;;;;;;;;;;;;;;;;;;5015065;28;19917;-61
2022/08/20 09:13:42;;;;;;;;;;;;;;;;;;4996175;28;19961;-61
2022/08/20 09:16:07;;;;;;;;;;;;;;;;;;4989259;28;20410;-59
2022/08/20 09:18:32;;;;;;;;;;;;;;;;;;4989945;28;20390;-61
2022/08/20 09:20:57;;;;;;;;;;;;;;;;;;4983273;28;19914;-62
2022/08/20 09:23:23;;;;;;;;;;;;;;;;;;4989616;28;19914;-61
2022/08/20 09:25:48;;;;;;;;;;;;;;;;;;4990973;28;19924;-60
2022/08/20 09:28:13;;;;;;;;;;;;;;;;;;4989448;28;19913;-62
2022/08/20 09:30:38;;;;;;;;;;;;;;;;;;4989159;28;20595;-61
2022/08/20 09:33:03;;;;;;;;;;;;;;;;;;4988333;28;20359;-61
2022/08/20 09:35:28;;;;;;;;;;;;;;;;;;4988414;28;19918;-61
2022/08/20 09:37:54;;;;;;;;;;;;;;;;;;4986922;28;19960;-61
2022/08/20 09:40:19;;;;;;;;;;;;;;;;;;4992079;28;19952;-61
2022/08/20 09:42:44;;;;;;;;;;;;;;;;;;4986303;28;19926;-61
2022/08/20 09:45:09;;;;;;;;;;;;;;;;;;4988573;28;19925;-61
2022/08/20 09:47:34;;;;;;;;;;;;;;;;;;4989308;28;19917;-61
2022/08/20 09:49:59;;;;;;;;;;;;;;;;;;4988337;28;20008;-61
2022/08/20 09:52:25;;;;;;;;;;;;;;;;;;4990458;28;19914;-62
2022/08/20 09:54:50;;;;;;;;;;;;;;;;;;4990105;28;19914;-62
2022/08/20 09:57:15;;;;;;;;;;;;;;;;;;4990080;28;19962;-62
2022/08/20 09:59:40;;;;;;;;;;;;;;;;;;4989023;28;19913;-61
2022/08/20 10:02:05;;;;;;;;;;;;;;;;;;4988341;28;20378;-62
2022/08/20 10:04:30;;;;;;;;;;;;;;;;;;4991209;28;20377;-62
2022/08/20 10:06:56;;;;;;;;;;;;;;;;;;4986295;28;19918;-62
2022/08/20 10:09:21;;;;;;;;;;;;;;;;;;4974328;28;19914;-61
2022/08/20 10:11:46;;;;;;;;;;;;;;;;;;4988787;28;19914;-61
2022/08/20 10:14:11;;;;;;;;;;;;;;;;;;4992673;28;20001;-61
2022/08/20 10:16:36;;;;;;;;;;;;;;;;;;4987971;28;19921;-62
2022/08/20 10:19:01;;;;;;;;;;;;;;;;;;5001920;28;20005;-61
2022/08/20 10:21:27;;;;;;;;;;;;;;;;;;4990118;28;19920;-60
2022/08/20 10:23:52;;;;;;;;;;;;;;;;;;4989975;28;19913;-61
2022/08/20 10:26:17;;;;;;;;;;;;;;;;;;4993085;28;20375;-61
2022/08/20 10:28:42;;;;;;;;;;;;;;;;;;4978245;28;19921;-61
2022/08/20 10:31:07;;;;;;;;;;;;;;;;;;4991722;28;19989;-62
2022/08/20 10:33:32;;;;;;;;;;;;;;;;;;4989032;28;19920;-61
2022/08/20 10:35:57;;;;;;;;;;;;;;;;;;4986034;28;19941;-62
2022/08/20 10:38:23;;;;;;;;;;;;;;;;;;4978660;28;19924;-62
2022/08/20 10:40:48;;;;;;;;;;;;;;;;;;4986013;28;20174;-61
2022/08/20 10:43:13;;;;;;;;;;;;;;;;;;4986606;28;20557;-61
2022/08/20 10:45:38;;;;;;;;;;;;;;;;;;4987805;28;19964;-62
2022/08/20 10:48:03;;;;;;;;;;;;;;;;;;4985001;28;20306;-62
2022/08/20 10:50:28;;;;;;;;;;;;;;;;;;4994999;28;19988;-62
2022/08/20 10:52:53;;;;;;;;;;;;;;;;;;4973749;28;19937;-62
2022/08/20 10:55:19;;;;;;;;;;;;;;;;;;4990668;28;19946;-62
2022/08/20 10:57:44;;;;;;;;;;;;;;;;;;4993232;28;19980;-62
2022/08/20 11:00:09;;;;;;;;;;;;;;;;;;4981932;28;19925;-62
2022/08/20 11:02:34;;;;;;;;;;;;;;;;;;4985783;28;21171;-62
2022/08/20 11:04:59;;;;;;;;;;;;;;;;;;4997764;28;19967;-62
2022/08/20 11:07:25;;;;;;;;;;;;;;;;;;4986314;28;19917;-62
2022/08/20 11:09:50;;;;;;;;;;;;;;;;;;4990501;28;20346;-62
2022/08/20 11:12:15;;;;;;;;;;;;;;;;;;4987694;28;19952;-62
2022/08/20 11:14:40;;;;;;;;;;;;;;;;;;4992453;28;19977;-62
2022/08/20 11:17:05;;;;;;;;;;;;;;;;;;4989421;28;20009;-61
2022/08/20 11:19:30;;;;;;;;;;;;;;;;;;4995631;28;19924;-63
2022/08/20 11:21:55;;;;;;;;;;;;;;;;;;4992015;28;19917;-62
2022/08/20 11:24:21;;;;;;;;;;;;;;;;;;4972026;28;19993;-62
2022/08/20 11:26:46;;;;;;;;;;;;;;;;;;4992403;28;19917;-62
2022/08/20 11:29:11;;;;;;;;;;;;;;;;;;4994403;28;19957;-62
2022/08/20 11:31:36;;;;;;;;;;;;;;;;;;4991700;28;19922;-63
2022/08/20 11:34:01;;;;;;;;;;;;;;;;;;4993709;28;20303;-62
2022/08/20 11:36:26;;;;;;;;;;;;;;;;;;4988273;28;20471;-63
2022/08/20 11:38:51;;;;;;;;;;;;;;;;;;4992354;28;19921;-62
2022/08/20 11:41:17;;;;;;;;;;;;;;;;;;4995040;28;19914;-63
2022/08/20 11:43:42;;;;;;;;;;;;;;;;;;4990654;28;19936;-62
2022/08/20 11:46:07;;;;;;;;;;;;;;;;;;4992916;28;19917;-62
2022/08/20 11:48:32;;;;;;;;;;;;;;;;;;4992335;28;19921;-61
2022/08/20 11:50:57;;;;;;;;;;;;;;;;;;4985396;28;19940;-62
2022/08/20 11:53:23;;;;;;;;;;;;;;;;;;4991766;28;19996;-61
2022/08/20 11:55:48;;;;;;;;;;;;;;;;;;4989995;28;19914;-62
2022/08/20 11:58:13;;;;;;;;;;;;;;;;;;4991215;28;20362;-62
2022/08/20 12:00:38;;;;;;;;;;;;;;;;;;4994474;28;19961;-62
2022/08/20 12:03:03;;;;;;;;;;;;;;;;;;4993169;28;20294;-62
2022/08/20 12:05:28;;;;;;;;;;;;;;;;;;4991478;28;19961;-62
2022/08/20 12:07:54;;;;;;;;;;;;;;;;;;4986637;28;19942;-62
2022/08/20 12:10:19;;;;;;;;;;;;;;;;;;4993108;28;20389;-63
2022/08/20 12:12:44;;;;;;;;;;;;;;;;;;4993262;28;20367;-62
2022/08/20 12:15:09;;;;;;;;;;;;;;;;;;4992493;28;19922;-61
2022/08/20 12:17:34;;;;;;;;;;;;;;;;;;4992501;28;20013;-63
2022/08/20 12:20:00;;;;;;;;;;;;;;;;;;4993482;28;19965;-62
2022/08/20 12:22:25;;;;;;;;;;;;;;;;;;4994067;28;19914;-63
2022/08/20 12:24:50;;;;;;;;;;;;;;;;;;4994208;28;20008;-62
2022/08/20 12:27:16;;;;;;;;;;;;;;;;;;4989712;28;19921;-62
2022/08/20 12:29:41;;;;;;;;;;;;;;;;;;4993735;28;20369;-62
2022/08/20 12:32:06;;;;;;;;;;;;;;;;;;4994106;28;20028;-61
2022/08/20 12:34:31;;;;;;;;;;;;;;;;;;4975529;28;19913;-62
2022/08/20 12:36:59;;;;;;;;;;;;;;;;;;4969568;28;19913;-62
2022/08/20 12:39:24;;;;;;;;;;;;;;;;;;4991570;28;19914;-63
2022/08/20 12:41:49;;;;;;;;;;;;;;;;;;4990059;28;19921;-63
2022/08/20 12:44:14;;;;;;;;;;;;;;;;;;4992912;28;20204;-63
2022/08/20 12:46:39;;;;;;;;;;;;;;;;;;4991904;28;20444;-64
2022/08/20 12:49:04;;;;;;;;;;;;;;;;;;4989220;28;20323;-63
2022/08/20 12:51:29;;;;;;;;;;;;;;;;;;4991241;28;20397;-63
2022/08/20 12:53:54;;;;;;;;;;;;;;;;;;4993252;28;19961;-63
2022/08/20 12:56:20;;;;;;;;;;;;;;;;;;4990284;28;19965;-63
2022/08/20 12:58:45;;;;;;;;;;;;;;;;;;4984661;28;19914;-64
2022/08/20 13:01:10;;;;;;;;;;;;;;;;;;4992550;28;20000;-62
2022/08/20 13:03:35;;;;;;;;;;;;;;;;;;4987363;28;20322;-63
2022/08/20 13:06:01;;;;;;;;;;;;;;;;;;4968116;28;20008;-63
2022/08/20 13:08:26;;;;;;;;;;;;;;;;;;4990348;28;19918;-64
2022/08/20 13:10:51;;;;;;;;;;;;;;;;;;4989882;28;19932;-62
2022/08/20 13:13:16;;;;;;;;;;;;;;;;;;4973291;28;19921;-63
2022/08/20 13:15:41;;;;;;;;;;;;;;;;;;4985804;28;19914;-63
2022/08/20 13:18:06;;;;;;;;;;;;;;;;;;5000691;28;19944;-63
2022/08/20 13:20:31;;;;;;;;;;;;;;;;;;5008409;28;20069;-63
2022/08/20 13:22:57;;;;;;;;;;;;;;;;;;5006284;28;19920;-62
2022/08/20 13:25:22;;;;;;;;;;;;;;;;;;5010185;28;19961;-63
2022/08/20 13:27:47;;;;;;;;;;;;;;;;;;5002504;28;20404;-63
2022/08/20 13:30:12;;;;;;;;;;;;;;;;;;5009287;28;20020;-63
2022/08/20 13:32:37;;;;;;;;;;;;;;;;;;4989780;28;19921;-63
2022/08/20 13:35:02;;;;;;;;;;;;;;;;;;5007722;28;19914;-64
2022/08/20 13:37:28;;;;;;;;;;;;;;;;;;5005455;28;19913;-63
2022/08/20 13:39:53;;;;;;;;;;;;;;;;;;5008677;28;19938;-63
2022/08/20 13:42:18;;;;;;;;;;;;;;;;;;5022172;28;20313;-63
2022/08/20 13:44:43;;;;;;;;;;;;;;;;;;5013188;28;19916;-63
2022/08/20 13:47:08;;;;;;;;;;;;;;;;;;5009264;28;19918;-63
2022/08/20 13:49:33;;;;;;;;;;;;;;;;;;5010502;28;19917;-62
2022/08/20 13:51:58;;;;;;;;;;;;;;;;;;5010565;28;20047;-63
2022/08/20 13:54:23;;;;;;;;;;;;;;;;;;5010670;28;20374;-63
2022/08/20 13:56:49;;;;;;;;;;;;;;;;;;5010059;28;20287;-63
2022/08/20 13:59:14;;;;;;;;;;;;;;;;;;5003169;28;19913;-64
2022/08/20 14:01:39;;;;;;;;;;;;;;;;;;5011680;28;20358;-64
2022/08/20 14:04:04;;;;;;;;;;;;;;;;;;5003205;28;20282;-63
2022/08/20 14:06:30;;;;;;;;;;;;;;;;;;5001441;28;20388;-63
2022/08/20 14:08:55;;;;;;;;;;;;;;;;;;5010761;28;19913;-63
2022/08/20 14:11:20;;;;;;;;;;;;;;;;;;5009758;28;19914;-62
2022/08/20 14:13:45;;;;;;;;;;;;;;;;;;5007277;28;19909;-63
2022/08/20 14:16:11;;;;;;;;;;;;;;;;;;5009152;28;20401;-63
2022/08/20 14:18:36;;;;;;;;;;;;;;;;;;5009032;28;19925;-63
2022/08/20 14:21:01;;;;;;;;;;;;;;;;;;5009955;28;19914;-63
2022/08/20 14:23:26;;;;;;;;;;;;;;;;;;5002924;28;19917;-63
2022/08/20 14:25:51;;;;;;;;;;;;;;;;;;5006302;28;20231;-63
2022/08/20 14:28:16;;;;;;;;;;;;;;;;;;5008825;28;19925;-64
2022/08/20 14:30:42;;;;;;;;;;;;;;;;;;5009885;28;19914;-62
2022/08/20 14:33:07;;;;;;;;;;;;;;;;;;5012892;28;19980;-63
2022/08/20 14:35:32;;;;;;;;;;;;;;;;;;5009152;28;20297;-62
2022/08/20 14:37:57;;;;;;;;;;;;;;;;;;5004102;28;19961;-63
2022/08/20 14:40:22;;;;;;;;;;;;;;;;;;5000675;28;19933;-64
2022/08/20 14:42:48;;;;;;;;;;;;;;;;;;5010909;28;19917;-63
2022/08/20 14:45:13;;;;;;;;;;;;;;;;;;5008766;28;20365;-65
2022/08/20 14:47:38;;;;;;;;;;;;;;;;;;5011919;28;20404;-64
2022/08/20 14:50:04;;;;;;;;;;;;;;;;;;5011461;28;20374;-63
2022/08/20 14:52:30;;;;;;;;;;;;;;;;;;5006632;28;20004;-63
2022/08/20 14:54:55;;;;;;;;;;;;;;;;;;5002490;28;19964;-64
2022/08/20 14:57:20;;;;;;;;;;;;;;;;;;4998918;28;20294;-64
2022/08/20 14:59:45;;;;;;;;;;;;;;;;;;5010057;28;19955;-64
2022/08/20 15:02:11;;;;;;;;;;;;;;;;;;5009769;28;19917;-62
2022/08/20 15:04:36;;;;;;;;;;;;;;;;;;5012236;28;19996;-64
2022/08/20 15:07:01;;;;;;;;;;;;;;;;;;5007144;28;19917;-64
2022/08/20 15:09:26;;;;;;;;;;;;;;;;;;5012319;28;19917;-64
2022/08/20 15:11:51;;;;;;;;;;;;;;;;;;5015960;28;19909;-64
2022/08/20 15:14:17;;;;;;;;;;;;;;;;;;5002186;28;19910;-63
2022/08/20 15:16:42;;;;;;;;;;;;;;;;;;4988625;28;19957;-63
2022/08/20 15:19:07;;;;;;;;;;;;;;;;;;4989148;28;19921;-63
2022/08/20 15:21:32;;;;;;;;;;;;;;;;;;4990800;28;19914;-64
2022/08/20 15:23:57;;;;;;;;;;;;;;;;;;4989375;28;20290;-63
2022/08/20 15:26:22;;;;;;;;;;;;;;;;;;4976948;28;19924;-63
2022/08/20 15:28:47;;;;;;;;;;;;;;;;;;4991252;28;20362;-64
2022/08/20 15:31:13;;;;;;;;;;;;;;;;;;4972702;28;19917;-63
2022/08/20 15:33:38;;;;;;;;;;;;;;;;;;4989950;28;19979;-63
2022/08/20 15:36:03;;;;;;;;;;;;;;;;;;4972952;28;20109;-62
2022/08/20 15:38:29;;;;;;;;;;;;;;;;;;4979807;28;20286;-63
2022/08/20 15:40:54;;;;;;;;;;;;;;;;;;4970871;28;19914;-63
2022/08/20 15:43:19;;;;;;;;;;;;;;;;;;4985526;28;20039;-63
2022/08/20 15:45:44;;;;;;;;;;;;;;;;;;4989825;28;19947;-64
2022/08/20 15:48:09;;;;;;;;;;;;;;;;;;4971451;28;19921;-63
2022/08/20 15:50:34;;;;;;;;;;;;;;;;;;4983143;28;19949;-67
2022/08/20 15:53:00;;;;;;;;;;;;;;;;;;4987678;28;20263;-64
2022/08/20 15:55:25;;;;;;;;;;;;;;;;;;4992072;28;19949;-64
2022/08/20 15:57:50;;;;;;;;;;;;;;;;;;4991986;28;20286;-64
2022/08/20 16:00:15;;;;;;;;;;;;;;;;;;4995622;28;20429;-64
2022/08/20 16:02:40;;;;;;;;;;;;;;;;;;4991108;28;20370;-63
2022/08/20 16:05:05;;;;;;;;;;;;;;;;;;4985158;28;19925;-64
2022/08/20 16:07:30;;;;;;;;;;;;;;;;;;4984720;28;20339;-64
2022/08/20 16:09:56;;;;;;;;;;;;;;;;;;4964429;28;19958;-64
2022/08/20 16:12:21;;;;;;;;;;;;;;;;;;4989924;28;19928;-65
2022/08/20 16:14:46;;;;;;;;;;;;;;;;;;4986006;28;20005;-65
2022/08/20 16:17:11;;;;;;;;;;;;;;;;;;4995016;28;20363;-64
2022/08/20 16:19:36;;;;;;;;;;;;;;;;;;5003888;28;19917;-65
2022/08/20 16:22:01;;;;;;;;;;;;;;;;;;5013989;28;20000;-64
2022/08/20 16:24:26;;;;;;;;;;;;;;;;;;5013980;28;19917;-64
2022/08/20 16:26:52;;;;;;;;;;;;;;;;;;5012241;28;19925;-64
2022/08/20 16:29:17;;;;;;;;;;;;;;;;;;5012743;28;20345;-65
2022/08/20 16:31:42;;;;;;;;;;;;;;;;;;5013843;28;19917;-65
2022/08/20 16:34:07;;;;;;;;;;;;;;;;;;5013911;28;20433;-65
2022/08/20 16:36:32;;;;;;;;;;;;;;;;;;5008401;28;19914;-65
2022/08/20 16:38:58;;;;;;;;;;;;;;;;;;5004782;28;19914;-65